Time;durP1;ratioP1;P1;durP2;ratioP2;P2;SDS_P1;SDS_P2;PMS_P1;PMS_P2;Temp;Humidity;BMP_temperature;BMP_pressure;BME280_temperature;BME280_humidity;BME280_pressure;Samples;Min_cycle;Max_cycle;Signal;HPM_P1;HPM_P2
2023/10/04 00:02:51;;;;;;;3.00;2.03;;;;;;;;;;8220699;28;20038;-62
2023/10/04 00:06:51;;;;;;;6.40;2.00;;;;;;;;;;8220331;28;20153;-61
2023/10/04 00:10:52;;;;;;;6.57;2.38;;;;;;;;;;8218280;28;20145;-61
2023/10/04 00:14:52;;;;;;;3.15;1.80;;;;;;;;;;8222013;28;20026;-61
2023/10/04 00:18:54;;;;;;;4.20;1.93;;;;;;;;;;8217203;28;20034;-62
2023/10/04 00:22:54;;;;;;;4.80;2.22;;;;;;;;;;8221403;28;20015;-62
2023/10/04 00:26:57;;;;;;;3.03;1.90;;;;;;;;;;8222364;28;20989;-61
2023/10/04 00:30:57;;;;;;;2.80;2.03;;;;;;;;;;8216453;28;20652;-61
2023/10/04 00:34:58;;;;;;;4.07;2.20;;;;;;;;;;8220132;28;20077;-62
2023/10/04 00:38:59;;;;;;;5.13;2.20;;;;;;;;;;8218876;28;20848;-62
2023/10/04 00:43:02;;;;;;;4.68;1.98;;;;;;;;;;8219452;28;20120;-61
2023/10/04 00:47:05;;;;;;;3.13;2.10;;;;;;;;;;8221417;28;20026;-62
2023/10/04 00:51:06;;;;;;;3.42;2.30;;;;;;;;;;8220625;28;20022;-62
2023/10/04 00:55:07;;;;;;;5.30;2.20;;;;;;;;;;8221051;28;20036;-62
2023/10/04 00:59:07;;;;;;;6.13;2.33;;;;;;;;;;8220192;28;20117;-61
2023/10/04 01:03:09;;;;;;;6.38;2.38;;;;;;;;;;8217999;28;20030;-62
2023/10/04 01:07:09;;;;;;;4.88;1.77;;;;;;;;;;8219119;28;20039;-61
2023/10/04 01:11:10;;;;;;;3.95;2.05;;;;;;;;;;8218457;28;20037;-62
2023/10/04 01:15:30;;;;;;;6.70;2.20;;;;;;;;;;8220758;28;20061;-62
2023/10/04 01:19:30;;;;;;;5.65;2.20;;;;;;;;;;8217829;28;20061;-62
2023/10/04 01:23:30;;;;;;;3.10;2.08;;;;;;;;;;8227890;28;20021;-62
2023/10/04 01:27:31;;;;;;;2.95;1.77;;;;;;;;;;8226174;28;20888;-62
2023/10/04 01:31:33;;;;;;;6.18;1.85;;;;;;;;;;8224399;28;20045;-62
2023/10/04 01:35:33;;;;;;;3.20;1.80;;;;;;;;;;8225314;28;20339;-62
2023/10/04 01:39:36;;;;;;;7.55;2.15;;;;;;;;;;8225950;28;20287;-62
2023/10/04 01:43:38;;;;;;;4.28;1.90;;;;;;;;;;8225018;28;20032;-61
2023/10/04 01:47:41;;;;;;;6.85;1.98;;;;;;;;;;8223825;28;20039;-62
2023/10/04 01:51:42;;;;;;;8.45;2.33;;;;;;;;;;8225408;28;20438;-62
2023/10/04 01:55:42;;;;;;;5.85;2.30;;;;;;;;;;8222788;28;20033;-62
2023/10/04 01:59:42;;;;;;;4.00;1.63;;;;;;;;;;8228081;28;20053;-62
2023/10/04 02:03:43;;;;;;;3.97;1.60;;;;;;;;;;8220191;28;20061;-62
2023/10/04 02:07:46;;;;;;;3.28;1.75;;;;;;;;;;8224783;28;20276;-62
2023/10/04 02:11:46;;;;;;;7.72;1.85;;;;;;;;;;8223727;28;20083;-62
2023/10/04 02:15:51;;;;;;;8.07;1.92;;;;;;;;;;8227328;28;20061;-62
2023/10/04 02:19:53;;;;;;;4.00;1.80;;;;;;;;;;8221742;28;20033;-61
2023/10/04 02:23:54;;;;;;;5.18;1.80;;;;;;;;;;8226830;28;20022;-62
2023/10/04 02:27:56;;;;;;;5.65;2.00;;;;;;;;;;8226914;28;20528;-62
2023/10/04 02:31:57;;;;;;;6.15;1.70;;;;;;;;;;8219417;28;20490;-62
2023/10/04 02:35:58;;;;;;;3.08;1.70;;;;;;;;;;8224515;28;20066;-62
2023/10/04 02:39:59;;;;;;;5.90;1.60;;;;;;;;;;8225043;28;20149;-62
2023/10/04 02:44:02;;;;;;;5.63;1.70;;;;;;;;;;8222262;28;20045;-62
2023/10/04 02:48:06;;;;;;;3.83;1.80;;;;;;;;;;8221584;28;20034;-61
2023/10/04 02:52:07;;;;;;;5.50;1.92;;;;;;;;;;8223557;28;20029;-62
2023/10/04 02:56:07;;;;;;;4.47;1.60;;;;;;;;;;8220104;28;20029;-62
2023/10/04 03:00:12;;;;;;;3.07;1.73;;;;;;;;;;8218396;28;20136;-62
2023/10/04 03:04:14;;;;;;;5.15;1.85;;;;;;;;;;8223380;28;20355;-62
2023/10/04 03:08:17;;;;;;;4.78;1.70;;;;;;;;;;8221747;28;20042;-62
2023/10/04 03:12:17;;;;;;;5.03;1.42;;;;;;;;;;8222080;28;20034;-61
2023/10/04 03:16:17;;;;;;;4.38;1.58;;;;;;;;;;8221288;28;20036;-62
2023/10/04 03:20:21;;;;;;;3.87;1.60;;;;;;;;;;8224953;28;21088;-62
2023/10/04 03:24:21;;;;;;;7.38;2.03;;;;;;;;;;8223564;28;20018;-62
2023/10/04 03:28:26;;;;;;;3.97;1.40;;;;;;;;;;8220237;28;22102;-62
2023/10/04 03:32:27;;;;;;;5.35;1.70;;;;;;;;;;8215851;28;20073;-61
2023/10/04 03:36:29;;;;;;;6.40;2.20;;;;;;;;;;8219879;28;20029;-62
2023/10/04 03:40:37;;;;;;;4.18;2.05;;;;;;;;;;8222348;28;20074;-62
2023/10/04 03:44:37;;;;;;;5.32;1.80;;;;;;;;;;8222231;28;20034;-61
2023/10/04 03:48:37;;;;;;;4.05;1.70;;;;;;;;;;8219037;28;20699;-61
2023/10/04 03:52:38;;;;;;;5.10;1.85;;;;;;;;;;8229824;28;20108;-62
2023/10/04 03:56:41;;;;;;;6.40;2.45;;;;;;;;;;8221700;28;20173;-61
2023/10/04 04:00:41;;;;;;;5.10;1.65;;;;;;;;;;8220907;28;20856;-61
2023/10/04 04:04:41;;;;;;;5.50;1.70;;;;;;;;;;8221476;28;20065;-62
2023/10/04 04:08:42;;;;;;;7.45;1.88;;;;;;;;;;8221627;28;20034;-62
2023/10/04 04:12:42;;;;;;;6.22;1.63;;;;;;;;;;8219295;28;20057;-62
2023/10/04 04:16:43;;;;;;;6.43;1.90;;;;;;;;;;8220522;28;20062;-62
2023/10/04 04:20:43;;;;;;;8.85;1.90;;;;;;;;;;8221543;28;20160;-62
2023/10/04 04:24:43;;;;;;;4.87;1.50;;;;;;;;;;8221528;28;20033;-61
2023/10/04 04:28:44;;;;;;;3.70;1.70;;;;;;;;;;8223000;28;20018;-61
2023/10/04 04:32:45;;;;;;;4.55;1.77;;;;;;;;;;8216980;28;20536;-61
2023/10/04 04:36:46;;;;;;;12.20;1.80;;;;;;;;;;8221379;28;20045;-61
2023/10/04 04:40:48;;;;;;;9.43;1.80;;;;;;;;;;8216916;28;21149;-61
2023/10/04 04:44:48;;;;;;;12.82;2.35;;;;;;;;;;8221345;28;20482;-62
2023/10/04 04:48:49;;;;;;;8.90;1.92;;;;;;;;;;8220523;28;20038;-62
2023/10/04 04:52:51;;;;;;;6.35;1.50;;;;;;;;;;8216573;28;20022;-62
2023/10/04 04:56:53;;;;;;;6.25;1.58;;;;;;;;;;8218187;28;20018;-62
2023/10/04 05:01:01;;;;;;;5.07;1.73;;;;;;;;;;8225088;28;20034;-62
2023/10/04 05:05:02;;;;;;;5.95;1.92;;;;;;;;;;8227627;28;20378;-63
2023/10/04 05:09:04;;;;;;;8.63;1.88;;;;;;;;;;8221828;28;20103;-62
2023/10/04 05:13:07;;;;;;;10.43;2.30;;;;;;;;;;8222614;28;20109;-62
2023/10/04 05:17:07;;;;;;;10.02;3.00;;;;;;;;;;8224041;28;20061;-61
2023/10/04 05:21:10;;;;;;;13.63;2.72;;;;;;;;;;8224719;28;20037;-61
2023/10/04 05:25:10;;;;;;;9.45;2.30;;;;;;;;;;8226431;28;20034;-62
2023/10/04 05:29:12;;;;;;;6.33;1.83;;;;;;;;;;8221971;28;20022;-63
2023/10/04 05:33:13;;;;;;;6.57;1.83;;;;;;;;;;8215209;28;20280;-62
2023/10/04 05:37:13;;;;;;;24.65;3.72;;;;;;;;;;8221223;28;20033;-61
2023/10/04 05:41:14;;;;;;;21.15;3.92;;;;;;;;;;8224966;28;20033;-61
2023/10/04 05:45:14;;;;;;;14.35;3.67;;;;;;;;;;8225141;28;20050;-62
2023/10/04 05:49:14;;;;;;;16.48;3.65;;;;;;;;;;8227088;28;20034;-62
2023/10/04 05:53:19;;;;;;;11.50;3.30;;;;;;;;;;8227854;28;20061;-61
2023/10/04 05:57:19;;;;;;;19.00;3.20;;;;;;;;;;8223538;28;20039;-61
2023/10/04 06:01:21;;;;;;;8.40;2.20;;;;;;;;;;8224259;28;20539;-62
2023/10/04 06:05:22;;;;;;;8.02;2.13;;;;;;;;;;8224154;28;20065;-61
2023/10/04 06:09:29;;;;;;;7.22;2.17;;;;;;;;;;8222427;28;20022;-63
2023/10/04 06:13:29;;;;;;;6.75;1.95;;;;;;;;;;8226079;28;20085;-62
2023/10/04 06:17:31;;;;;;;14.30;3.30;;;;;;;;;;8223569;28;20034;-62
2023/10/04 06:21:32;;;;;;;15.65;3.38;;;;;;;;;;8223226;28;20019;-62
2023/10/04 06:25:34;;;;;;;15.85;2.97;;;;;;;;;;8221822;28;20017;-62
2023/10/04 06:29:34;;;;;;;13.50;3.03;;;;;;;;;;8223976;28;20041;-63
2023/10/04 06:33:34;;;;;;;11.33;2.90;;;;;;;;;;8221596;28;20219;-62
2023/10/04 06:37:36;;;;;;;15.10;3.57;;;;;;;;;;8222250;28;20280;-62
2023/10/04 06:41:36;;;;;;;11.23;2.80;;;;;;;;;;8221524;28;20280;-62
2023/10/04 06:45:37;;;;;;;10.93;2.90;;;;;;;;;;8217527;28;20033;-62
2023/10/04 06:49:38;;;;;;;10.35;2.90;;;;;;;;;;8220200;28;20053;-63
2023/10/04 06:53:43;;;;;;;6.90;2.22;;;;;;;;;;8222320;28;20171;-62
2023/10/04 06:57:44;;;;;;;5.22;2.35;;;;;;;;;;8220332;28;20022;-63
2023/10/04 07:01:45;;;;;;;7.97;2.20;;;;;;;;;;8218632;28;20120;-62
2023/10/04 07:05:47;;;;;;;6.45;2.22;;;;;;;;;;8223224;28;20113;-63
2023/10/04 07:09:47;;;;;;;7.22;2.10;;;;;;;;;;8221096;28;20022;-62
2023/10/04 07:13:47;;;;;;;4.32;1.80;;;;;;;;;;8222167;28;20084;-62
2023/10/04 07:17:47;;;;;;;4.32;1.88;;;;;;;;;;8221474;28;20041;-62
2023/10/04 07:21:49;;;;;;;4.15;1.63;;;;;;;;;;8219771;28;20022;-62
2023/10/04 07:25:49;;;;;;;7.82;1.90;;;;;;;;;;8218125;28;20037;-62
2023/10/04 07:29:50;;;;;;;4.68;1.90;;;;;;;;;;8223011;28;20499;-63
2023/10/04 07:33:50;;;;;;;7.10;2.00;;;;;;;;;;8223096;28;20094;-62
2023/10/04 07:37:51;;;;;;;3.85;1.50;;;;;;;;;;8220249;28;20556;-62
2023/10/04 07:41:51;;;;;;;4.35;1.73;;;;;;;;;;8204068;28;20033;-63
2023/10/04 07:45:52;;;;;;;6.50;1.80;;;;;;;;;;8208397;28;20157;-63
2023/10/04 07:49:52;;;;;;;2.97;1.53;;;;;;;;;;8216972;28;20033;-63
2023/10/04 07:53:52;;;;;;;6.28;1.90;;;;;;;;;;8216686;28;20256;-63
2023/10/04 07:57:58;;;;;;;6.13;1.90;;;;;;;;;;8214442;28;20635;-63
2023/10/04 08:01:58;;;;;;;5.78;2.15;;;;;;;;;;8213783;28;20050;-63
2023/10/04 08:05:58;;;;;;;3.97;1.70;;;;;;;;;;8217292;28;21000;-63
2023/10/04 08:09:58;;;;;;;6.88;2.13;;;;;;;;;;8212768;28;20018;-63
2023/10/04 08:13:59;;;;;;;3.25;1.60;;;;;;;;;;8217793;28;20033;-62
2023/10/04 08:18:01;;;;;;;4.82;1.80;;;;;;;;;;8214716;28;20057;-63
2023/10/04 08:22:02;;;;;;;6.35;1.63;;;;;;;;;;8219493;28;20030;-63
2023/10/04 08:26:11;;;;;;;4.80;1.75;;;;;;;;;;8219714;28;20025;-63
2023/10/04 08:30:13;;;;;;;3.33;1.80;;;;;;;;;;8219660;28;20038;-63
2023/10/04 08:34:15;;;;;;;4.85;1.75;;;;;;;;;;8215404;28;20033;-62
2023/10/04 08:38:16;;;;;;;7.53;2.13;;;;;;;;;;8218851;28;20727;-62
2023/10/04 08:42:18;;;;;;;7.47;2.33;;;;;;;;;;8214560;28;20474;-63
2023/10/04 08:46:20;;;;;;;6.07;1.90;;;;;;;;;;8216514;28;20860;-64
2023/10/04 08:50:30;;;;;;;5.18;1.88;;;;;;;;;;8219382;28;20943;-62
2023/10/04 08:54:31;;;;;;;3.78;1.85;;;;;;;;;;8216502;28;20030;-62
2023/10/04 08:58:31;;;;;;;5.47;1.97;;;;;;;;;;8215803;28;20149;-62
2023/10/04 09:02:31;;;;;;;5.63;2.10;;;;;;;;;;8213982;28;20289;-61
2023/10/04 09:06:32;;;;;;;7.35;2.20;;;;;;;;;;8214531;28;21199;-61
2023/10/04 09:10:36;;;;;;;5.85;2.20;;;;;;;;;;8220326;28;20030;-61
2023/10/04 09:14:40;;;;;;;6.38;2.35;;;;;;;;;;8217132;28;20026;-61
2023/10/04 09:18:40;;;;;;;7.85;2.75;;;;;;;;;;8216292;28;20042;-62
2023/10/04 09:22:40;;;;;;;7.03;2.40;;;;;;;;;;8214697;28;20203;-62
2023/10/04 09:26:54;;;;;;;8.80;2.67;;;;;;;;;;8216063;28;20017;-61
2023/10/04 09:31:07;;;;;;;6.85;2.67;;;;;;;;;;8214277;28;20265;-62
2023/10/04 09:35:08;;;;;;;9.00;2.83;;;;;;;;;;8216451;28;20030;-62
2023/10/04 09:39:09;;;;;;;7.68;2.40;;;;;;;;;;8214360;28;20049;-62
2023/10/04 09:43:10;;;;;;;8.05;2.53;;;;;;;;;;8218023;28;20044;-62
2023/10/04 09:47:10;;;;;;;6.00;2.40;;;;;;;;;;8224334;28;20153;-61
2023/10/04 09:51:10;;;;;;;6.50;2.28;;;;;;;;;;8225687;28;20065;-61
2023/10/04 09:55:13;;;;;;;6.32;2.53;;;;;;;;;;8218887;28;20037;-62
2023/10/04 09:59:15;;;;;;;6.37;2.50;;;;;;;;;;8223312;28;20315;-61
2023/10/04 10:03:16;;;;;;;7.15;2.35;;;;;;;;;;8218045;28;20381;-62
2023/10/04 10:07:21;;;;;;;8.13;2.30;;;;;;;;;;8222921;28;20108;-61
2023/10/04 10:11:22;;;;;;;8.38;2.40;;;;;;;;;;8221442;28;20030;-62
2023/10/04 10:15:22;;;;;;;7.80;2.38;;;;;;;;;;8220994;28;20038;-61
2023/10/04 10:19:27;;;;;;;6.60;2.50;;;;;;;;;;8224005;28;20486;-62
2023/10/04 10:23:27;;;;;;;8.13;2.75;;;;;;;;;;8227381;28;20057;-62
2023/10/04 10:27:30;;;;;;;6.57;2.38;;;;;;;;;;8221149;28;20033;-61
2023/10/04 10:31:30;;;;;;;7.33;3.03;;;;;;;;;;8220920;28;20033;-61
2023/10/04 10:35:50;;;;;;;7.97;2.75;;;;;;;;;;8221195;28;20923;-61
2023/10/04 10:39:51;;;;;;;6.30;2.78;;;;;;;;;;8225474;28;20045;-60
2023/10/04 10:44:11;;;;;;;8.23;2.50;;;;;;;;;;8221390;28;20061;-61
2023/10/04 10:48:11;;;;;;;5.28;2.53;;;;;;;;;;8219509;28;20046;-61
2023/10/04 10:52:31;;;;;;;5.78;2.60;;;;;;;;;;8220607;28;20022;-60
2023/10/04 10:56:37;;;;;;;6.22;2.67;;;;;;;;;;8216968;28;20065;-62
2023/10/04 11:00:37;;;;;;;8.10;2.78;;;;;;;;;;8217516;28;20503;-61
2023/10/04 11:04:38;;;;;;;7.72;3.00;;;;;;;;;;8219765;28;20581;-62
2023/10/04 11:08:39;;;;;;;8.45;2.80;;;;;;;;;;8224487;28;20037;-61
2023/10/04 11:12:42;;;;;;;6.85;2.72;;;;;;;;;;8219471;28;20057;-62
2023/10/04 11:16:42;;;;;;;7.28;2.80;;;;;;;;;;8217289;28;20487;-61
2023/10/04 11:20:43;;;;;;;4.97;2.28;;;;;;;;;;8216962;28;20430;-61
2023/10/04 11:24:44;;;;;;;6.53;2.65;;;;;;;;;;8223325;28;20671;-61
2023/10/04 11:28:46;;;;;;;6.80;2.75;;;;;;;;;;8218965;28;20436;-61
2023/10/04 11:32:46;;;;;;;9.23;2.90;;;;;;;;;;8217733;28;20493;-61
2023/10/04 11:36:47;;;;;;;6.63;3.00;;;;;;;;;;8221091;28;20046;-61
2023/10/04 11:40:49;;;;;;;8.30;2.90;;;;;;;;;;8215227;28;20056;-61
2023/10/04 11:44:49;;;;;;;8.45;2.88;;;;;;;;;;8219459;28;20026;-61
2023/10/04 11:48:51;;;;;;;4.63;2.78;;;;;;;;;;8217825;28;20637;-61
2023/10/04 11:52:52;;;;;;;6.40;2.70;;;;;;;;;;8218666;28;20164;-61
2023/10/04 11:56:52;;;;;;;6.80;3.08;;;;;;;;;;8220442;28;20093;-60
2023/10/04 12:01:02;;;;;;;6.90;3.22;;;;;;;;;;8218141;28;20049;-61
2023/10/04 12:05:02;;;;;;;6.50;2.90;;;;;;;;;;8217298;28;20125;-61
2023/10/04 12:09:07;;;;;;;6.35;2.88;;;;;;;;;;8216720;28;20050;-61
2023/10/04 12:13:08;;;;;;;6.13;3.10;;;;;;;;;;8215085;28;20038;-61
2023/10/04 12:17:12;;;;;;;7.50;2.53;;;;;;;;;;8212626;28;20120;-61
2023/10/04 12:21:13;;;;;;;5.55;2.72;;;;;;;;;;8217720;28;20058;-62
2023/10/04 12:25:13;;;;;;;6.00;3.07;;;;;;;;;;8213986;28;20173;-62
2023/10/04 12:29:13;;;;;;;5.47;2.88;;;;;;;;;;8216646;28;20038;-61
2023/10/04 12:33:14;;;;;;;5.65;2.78;;;;;;;;;;8212360;28;20137;-62
2023/10/04 12:37:15;;;;;;;7.70;2.80;;;;;;;;;;8219690;28;20127;-61
2023/10/04 12:41:16;;;;;;;7.75;3.15;;;;;;;;;;8218526;28;20037;-61
2023/10/04 12:45:17;;;;;;;6.13;2.72;;;;;;;;;;8214444;28;20034;-61
2023/10/04 12:49:20;;;;;;;8.77;3.08;;;;;;;;;;8217945;28;21241;-61
2023/10/04 12:53:20;;;;;;;7.32;2.78;;;;;;;;;;8217429;28;20034;-62
2023/10/04 12:57:21;;;;;;;5.65;3.00;;;;;;;;;;8219123;28;20826;-62
2023/10/04 13:01:21;;;;;;;12.07;3.30;;;;;;;;;;8212497;28;20050;-62
2023/10/04 13:05:22;;;;;;;9.98;3.33;;;;;;;;;;8217682;28;20022;-61
2023/10/04 13:09:26;;;;;;;7.00;3.00;;;;;;;;;;8214782;28;20042;-61
2023/10/04 13:13:26;;;;;;;6.05;3.30;;;;;;;;;;8217939;28;20117;-61
2023/10/04 13:17:28;;;;;;;7.68;2.72;;;;;;;;;;8215798;28;20122;-61
2023/10/04 13:21:28;;;;;;;8.45;2.60;;;;;;;;;;8221152;28;20032;-61
2023/10/04 13:25:29;;;;;;;8.00;2.80;;;;;;;;;;8220044;28;20026;-61
2023/10/04 13:29:30;;;;;;;6.32;3.10;;;;;;;;;;8217868;28;20556;-62
2023/10/04 13:33:30;;;;;;;5.90;2.75;;;;;;;;;;8217863;28;20068;-61
2023/10/04 13:37:30;;;;;;;6.55;3.00;;;;;;;;;;8223976;28;20026;-62
2023/10/04 13:41:31;;;;;;;6.78;3.10;;;;;;;;;;8219889;28;20137;-61
2023/10/04 13:45:31;;;;;;;7.30;3.05;;;;;;;;;;8227847;28;20029;-61
2023/10/04 13:49:32;;;;;;;7.43;3.00;;;;;;;;;;8219628;28;20030;-61
2023/10/04 13:53:34;;;;;;;9.77;3.30;;;;;;;;;;8219192;28;20118;-61
2023/10/04 13:57:35;;;;;;;9.93;2.70;;;;;;;;;;8220755;28;20044;-61
2023/10/04 14:01:36;;;;;;;6.60;3.20;;;;;;;;;;8216650;28;20045;-62
2023/10/04 14:05:36;;;;;;;6.50;3.30;;;;;;;;;;8221245;28;20040;-62
2023/10/04 14:09:37;;;;;;;7.30;2.92;;;;;;;;;;8219647;28;20022;-62
2023/10/04 14:13:40;;;;;;;5.32;3.00;;;;;;;;;;8220784;28;20033;-61
2023/10/04 14:17:41;;;;;;;8.60;2.95;;;;;;;;;;8217584;28;20081;-61
2023/10/04 14:21:41;;;;;;;8.13;3.70;;;;;;;;;;8222961;28;20022;-62
2023/10/04 14:25:42;;;;;;;6.70;3.50;;;;;;;;;;8221467;28;20026;-61
2023/10/04 14:29:42;;;;;;;3.85;2.72;;;;;;;;;;8217343;28;20069;-61
2023/10/04 14:33:43;;;;;;;5.70;2.75;;;;;;;;;;8220999;28;20123;-60
2023/10/04 14:37:43;;;;;;;7.78;3.08;;;;;;;;;;8214176;28;20426;-61
2023/10/04 14:41:44;;;;;;;8.93;3.67;;;;;;;;;;8207813;28;20026;-62
2023/10/04 14:45:45;;;;;;;8.00;3.05;;;;;;;;;;8217536;28;20042;-62
2023/10/04 14:49:45;;;;;;;7.70;2.80;;;;;;;;;;8223688;28;20026;-61
2023/10/04 14:53:45;;;;;;;9.43;3.13;;;;;;;;;;8212904;28;20037;-62
2023/10/04 14:57:46;;;;;;;6.88;3.20;;;;;;;;;;8215316;28;20036;-62
2023/10/04 15:01:47;;;;;;;7.57;3.25;;;;;;;;;;8210657;28;20049;-62
2023/10/04 15:05:47;;;;;;;8.30;3.45;;;;;;;;;;8219206;28;20022;-62
2023/10/04 15:09:48;;;;;;;8.30;3.08;;;;;;;;;;8218832;28;20120;-62
2023/10/04 15:13:49;;;;;;;7.70;3.03;;;;;;;;;;8229108;28;20026;-62
2023/10/04 15:17:50;;;;;;;6.13;3.08;;;;;;;;;;8228591;28;20041;-64
2023/10/04 15:21:50;;;;;;;8.43;2.97;;;;;;;;;;8226056;28;20034;-64
2023/10/04 15:25:50;;;;;;;6.53;3.20;;;;;;;;;;8225574;28;20273;-65
2023/10/04 15:29:51;;;;;;;8.73;2.85;;;;;;;;;;8225062;28;20041;-62
2023/10/04 15:33:52;;;;;;;6.18;2.97;;;;;;;;;;8225591;28;20046;-63
2023/10/04 15:37:53;;;;;;;7.90;3.20;;;;;;;;;;8220485;28;20033;-59
2023/10/04 15:41:55;;;;;;;7.03;3.22;;;;;;;;;;8213615;28;20096;-61
2023/10/04 15:45:56;;;;;;;8.77;3.30;;;;;;;;;;8217235;28;20168;-61
2023/10/04 15:49:56;;;;;;;5.78;2.90;;;;;;;;;;8216882;28;21688;-61
2023/10/04 15:53:56;;;;;;;5.95;3.17;;;;;;;;;;8219637;28;20603;-61
2023/10/04 15:57:56;;;;;;;8.30;3.45;;;;;;;;;;8218082;28;21586;-62
2023/10/04 16:01:57;;;;;;;6.50;3.10;;;;;;;;;;8214816;28;20132;-60
2023/10/04 16:05:57;;;;;;;8.73;3.30;;;;;;;;;;8217001;28;20287;-61
2023/10/04 16:09:57;;;;;;;5.53;3.03;;;;;;;;;;8214209;28;20287;-60
2023/10/04 16:13:59;;;;;;;10.32;3.45;;;;;;;;;;8216870;28;20030;-61
2023/10/04 16:18:00;;;;;;;13.02;3.50;;;;;;;;;;8219276;28;20112;-61
2023/10/04 16:22:00;;;;;;;6.35;2.80;;;;;;;;;;8216521;28;20030;-62
2023/10/04 16:26:03;;;;;;;6.80;2.85;;;;;;;;;;8212201;28;20026;-61
2023/10/04 16:30:05;;;;;;;7.90;3.05;;;;;;;;;;8211233;28;20026;-61
2023/10/04 16:34:06;;;;;;;10.70;3.15;;;;;;;;;;8210900;28;20026;-62
2023/10/04 16:38:06;;;;;;;7.60;2.72;;;;;;;;;;8213618;28;20045;-61
2023/10/04 16:42:07;;;;;;;6.25;2.72;;;;;;;;;;8211699;28;20034;-61
2023/10/04 16:46:07;;;;;;;6.63;3.30;;;;;;;;;;8213250;28;20026;-62
2023/10/04 16:50:07;;;;;;;6.20;2.72;;;;;;;;;;8211676;28;20137;-62
2023/10/04 16:54:07;;;;;;;4.78;2.58;;;;;;;;;;8224790;28;20104;-61
2023/10/04 16:58:07;;;;;;;5.28;2.83;;;;;;;;;;8221338;28;20037;-61
2023/10/04 17:02:08;;;;;;;8.40;3.25;;;;;;;;;;8222768;28;20030;-62
2023/10/04 17:06:09;;;;;;;6.20;2.65;;;;;;;;;;8225953;28;20105;-61
2023/10/04 17:10:09;;;;;;;6.18;2.80;;;;;;;;;;8222020;28;20049;-61
2023/10/04 17:14:10;;;;;;;8.40;3.00;;;;;;;;;;8221828;28;20026;-62
2023/10/04 17:18:10;;;;;;;7.55;3.00;;;;;;;;;;8222000;28;20951;-62
2023/10/04 17:22:11;;;;;;;7.47;2.70;;;;;;;;;;8222801;28;20052;-61
2023/10/04 17:26:11;;;;;;;7.22;3.08;;;;;;;;;;8225129;28;20873;-60
2023/10/04 17:30:19;;;;;;;4.97;2.50;;;;;;;;;;8223190;28;20041;-62
2023/10/04 17:34:21;;;;;;;7.32;2.60;;;;;;;;;;8220342;28;20026;-61
2023/10/04 17:38:21;;;;;;;5.90;2.95;;;;;;;;;;8219406;28;20057;-62
2023/10/04 17:42:21;;;;;;;6.10;2.78;;;;;;;;;;8217865;28;20030;-61
2023/10/04 17:46:21;;;;;;;7.17;3.20;;;;;;;;;;8211681;28;20608;-61
2023/10/04 17:50:22;;;;;;;6.47;3.10;;;;;;;;;;8214267;28;20285;-62
2023/10/04 17:54:22;;;;;;;6.60;3.00;;;;;;;;;;8214403;28;20293;-62
2023/10/04 17:58:23;;;;;;;7.63;2.90;;;;;;;;;;8212701;28;20724;-62
2023/10/04 18:02:23;;;;;;;9.40;3.50;;;;;;;;;;8211163;28;20049;-61
2023/10/04 18:06:24;;;;;;;5.55;2.67;;;;;;;;;;8214151;28;20087;-61
2023/10/04 18:10:24;;;;;;;6.10;2.65;;;;;;;;;;8215319;28;20049;-61
2023/10/04 18:14:24;;;;;;;8.80;2.88;;;;;;;;;;8217951;28;20026;-61
2023/10/04 18:18:24;;;;;;;7.28;3.30;;;;;;;;;;8210317;28;20034;-61
2023/10/04 18:22:24;;;;;;;6.15;2.72;;;;;;;;;;8216641;28;20022;-61
2023/10/04 18:26:25;;;;;;;7.63;2.78;;;;;;;;;;8211360;28;20025;-61
2023/10/04 18:30:25;;;;;;;8.60;3.00;;;;;;;;;;8212776;28;20034;-61
2023/10/04 18:34:26;;;;;;;6.45;2.80;;;;;;;;;;8212435;28;20021;-61
2023/10/04 18:38:27;;;;;;;7.63;2.72;;;;;;;;;;8217286;28;20034;-66
2023/10/04 18:42:27;;;;;;;8.60;2.90;;;;;;;;;;8215008;28;20022;-62
2023/10/04 18:46:28;;;;;;;7.35;2.97;;;;;;;;;;8215509;28;20030;-60
2023/10/04 18:50:28;;;;;;;10.87;3.43;;;;;;;;;;8215008;28;20045;-62
2023/10/04 18:54:28;;;;;;;8.37;3.00;;;;;;;;;;8215360;28;20026;-61
2023/10/04 18:58:29;;;;;;;6.82;2.88;;;;;;;;;;8211283;28;20097;-61
2023/10/04 19:02:29;;;;;;;8.95;3.20;;;;;;;;;;8207347;28;20042;-60
2023/10/04 19:06:31;;;;;;;6.57;2.93;;;;;;;;;;8211904;28;20029;-60
2023/10/04 19:10:31;;;;;;;7.22;2.70;;;;;;;;;;8208625;28;20625;-61
2023/10/04 19:14:31;;;;;;;8.70;3.10;;;;;;;;;;8213135;28;20025;-60
2023/10/04 19:18:32;;;;;;;7.80;2.97;;;;;;;;;;8209811;28;20038;-62
2023/10/04 19:22:32;;;;;;;12.37;3.47;;;;;;;;;;8211342;28;20030;-61
2023/10/04 19:26:33;;;;;;;7.65;2.92;;;;;;;;;;8214214;28;20312;-60
2023/10/04 19:30:36;;;;;;;9.30;3.08;;;;;;;;;;8215638;28;20140;-61
2023/10/04 19:34:37;;;;;;;9.57;3.17;;;;;;;;;;8213946;28;20029;-61
2023/10/04 19:38:37;;;;;;;5.97;2.92;;;;;;;;;;8213369;28;20022;-60
2023/10/04 19:42:37;;;;;;;9.80;3.10;;;;;;;;;;8209057;28;20033;-62
2023/10/04 19:46:38;;;;;;;7.03;3.00;;;;;;;;;;8212988;28;20168;-60
2023/10/04 19:50:38;;;;;;;8.68;2.95;;;;;;;;;;8213970;28;22646;-62
2023/10/04 19:54:38;;;;;;;9.40;3.00;;;;;;;;;;8208123;28;20038;-62
2023/10/04 19:58:40;;;;;;;7.40;2.85;;;;;;;;;;8223116;28;20491;-63
2023/10/04 20:02:40;;;;;;;5.47;2.70;;;;;;;;;;8216286;28;20064;-62
2023/10/04 20:06:41;;;;;;;9.93;3.40;;;;;;;;;;8222850;28;20022;-66
2023/10/04 20:10:43;;;;;;;9.82;3.38;;;;;;;;;;8228449;28;20875;-66
2023/10/04 20:14:45;;;;;;;8.05;2.70;;;;;;;;;;8234271;28;20018;-65
2023/10/04 20:18:45;;;;;;;6.50;2.55;;;;;;;;;;8230659;28;20164;-62
2023/10/04 20:22:46;;;;;;;8.68;2.65;;;;;;;;;;8236169;28;20025;-63
2023/10/04 20:26:46;;;;;;;8.80;2.83;;;;;;;;;;8229745;28;20062;-64
2023/10/04 20:30:46;;;;;;;6.25;2.60;;;;;;;;;;8227703;28;20280;-64
2023/10/04 20:34:47;;;;;;;8.90;2.78;;;;;;;;;;8225066;28;20053;-60
2023/10/04 20:38:47;;;;;;;9.60;2.70;;;;;;;;;;8221078;28;20018;-60
2023/10/04 20:42:47;;;;;;;8.45;3.00;;;;;;;;;;8216714;28;20033;-61
2023/10/04 20:46:47;;;;;;;8.63;2.80;;;;;;;;;;8214828;28;20041;-61
2023/10/04 20:50:47;;;;;;;8.00;2.90;;;;;;;;;;8213295;28;20072;-61
2023/10/04 20:54:51;;;;;;;10.85;3.00;;;;;;;;;;8211634;28;20049;-61
2023/10/04 20:58:51;;;;;;;7.50;2.93;;;;;;;;;;8213998;28;20018;-62
2023/10/04 21:02:52;;;;;;;8.15;2.58;;;;;;;;;;8208954;28;20114;-62
2023/10/04 21:06:52;;;;;;;7.50;2.93;;;;;;;;;;8208510;28;20355;-62
2023/10/04 21:10:52;;;;;;;6.87;2.50;;;;;;;;;;8211202;28;20395;-61
2023/10/04 21:14:53;;;;;;;6.97;2.53;;;;;;;;;;8215160;28;20292;-61
2023/10/04 21:18:53;;;;;;;5.47;2.63;;;;;;;;;;8211588;28;20133;-62
2023/10/04 21:22:53;;;;;;;8.20;2.92;;;;;;;;;;8213148;28;20478;-62
2023/10/04 21:26:53;;;;;;;11.52;3.22;;;;;;;;;;8212134;28;20164;-62
2023/10/04 21:30:57;;;;;;;8.05;3.20;;;;;;;;;;8213524;28;20077;-61
2023/10/04 21:34:57;;;;;;;5.90;2.70;;;;;;;;;;8212601;28;20030;-62
2023/10/04 21:39:07;;;;;;;7.73;2.70;;;;;;;;;;8216267;28;20036;-63
2023/10/04 21:43:09;;;;;;;11.93;3.00;;;;;;;;;;8220096;28;20021;-60
2023/10/04 21:47:16;;;;;;;8.30;2.88;;;;;;;;;;8220094;28;20030;-61
2023/10/04 21:51:25;;;;;;;5.22;2.60;;;;;;;;;;8220256;28;20034;-60
2023/10/04 21:55:26;;;;;;;7.85;2.88;;;;;;;;;;8215999;28;20025;-65
2023/10/04 21:59:26;;;;;;;8.03;2.77;;;;;;;;;;8215760;28;20037;-65
2023/10/04 22:03:27;;;;;;;7.50;3.03;;;;;;;;;;8214843;28;20045;-62
2023/10/04 22:07:28;;;;;;;9.43;2.83;;;;;;;;;;8219066;28;20030;-62
2023/10/04 22:11:28;;;;;;;9.45;2.95;;;;;;;;;;8220452;28;20108;-62
2023/10/04 22:15:30;;;;;;;9.45;3.05;;;;;;;;;;8223130;28;20100;-62
2023/10/04 22:19:31;;;;;;;8.52;2.97;;;;;;;;;;8222284;28;20030;-61
2023/10/04 22:23:31;;;;;;;8.70;3.40;;;;;;;;;;8224018;28;20043;-62
2023/10/04 22:27:31;;;;;;;7.15;2.72;;;;;;;;;;8221485;28;21066;-62
2023/10/04 22:31:32;;;;;;;9.60;2.75;;;;;;;;;;8221009;28;20030;-67
2023/10/04 22:35:35;;;;;;;8.90;3.17;;;;;;;;;;8223340;28;20034;-62
2023/10/04 22:39:36;;;;;;;9.88;3.00;;;;;;;;;;8221721;28;22681;-61
2023/10/04 22:43:36;;;;;;;8.50;2.85;;;;;;;;;;8221271;28;20152;-62
2023/10/04 22:47:36;;;;;;;10.70;3.40;;;;;;;;;;8219373;28;20156;-61
2023/10/04 22:51:37;;;;;;;8.48;3.28;;;;;;;;;;8222371;28;20362;-62
2023/10/04 22:55:37;;;;;;;6.97;2.85;;;;;;;;;;8221358;28;20026;-61
2023/10/04 22:59:38;;;;;;;9.50;3.33;;;;;;;;;;8219362;28;20614;-62
2023/10/04 23:03:39;;;;;;;9.80;3.10;;;;;;;;;;8219657;28;20168;-61
2023/10/04 23:07:41;;;;;;;7.80;3.15;;;;;;;;;;8222338;28;20026;-61
2023/10/04 23:11:45;;;;;;;8.63;3.15;;;;;;;;;;8226729;28;20085;-61
2023/10/04 23:15:46;;;;;;;8.90;3.75;;;;;;;;;;8220996;28;20042;-61
2023/10/04 23:19:47;;;;;;;7.57;2.65;;;;;;;;;;8216399;28;20026;-61
2023/10/04 23:23:51;;;;;;;9.07;2.75;;;;;;;;;;8219830;28;20018;-61
2023/10/04 23:27:52;;;;;;;9.07;3.30;;;;;;;;;;8221145;28;20057;-61
2023/10/04 23:31:53;;;;;;;12.80;3.33;;;;;;;;;;8219214;28;20120;-61
2023/10/04 23:39:57;;;;;;;9.20;3.33;;;;;;;;;;8218632;28;20032;-61
2023/10/04 23:43:57;;;;;;;7.30;3.10;;;;;;;;;;8222655;28;20906;-61
2023/10/04 23:48:02;;;;;;;13.95;3.60;;;;;;;;;;8219060;28;20050;-61
2023/10/04 23:52:03;;;;;;;11.45;3.30;;;;;;;;;;8221929;28;20034;-61
2023/10/04 23:56:07;;;;;;;10.65;3.67;;;;;;;;;;8220832;28;20292;-61
